sensor_id;sensor_type;location;lat;lon;timestamp;P1;durP1;ratioP1;P2;durP2;ratioP2
41627;SDS011;27321;50.816;6.054;2023-03-14T00:00:59;4.47;;;1.40;;
41627;SDS011;27321;50.816;6.054;2023-03-14T00:04:00;5.97;;;1.53;;
41627;SDS011;27321;50.816;6.054;2023-03-14T00:07:01;3.60;;;1.63;;
41627;SDS011;27321;50.816;6.054;2023-03-14T00:10:03;6.30;;;1.23;;
41627;SDS011;27321;50.816;6.054;2023-03-14T00:13:10;4.57;;;0.80;;
41627;SDS011;27321;50.816;6.054;2023-03-14T00:16:12;3.27;;;0.50;;
41627;SDS011;27321;50.816;6.054;2023-03-14T00:19:13;2.95;;;0.70;;
41627;SDS011;27321;50.816;6.054;2023-03-14T00:22:14;3.15;;;0.73;;
41627;SDS011;27321;50.816;6.054;2023-03-14T00:25:15;1.70;;;0.67;;
41627;SDS011;27321;50.816;6.054;2023-03-14T00:28:16;2.30;;;0.70;;
41627;SDS011;27321;50.816;6.054;2023-03-14T00:31:17;2.53;;;0.80;;
41627;SDS011;27321;50.816;6.054;2023-03-14T00:34:18;5.40;;;1.23;;
41627;SDS011;27321;50.816;6.054;2023-03-14T00:37:19;9.97;;;0.97;;
41627;SDS011;27321;50.816;6.054;2023-03-14T00:40:20;4.60;;;0.98;;
41627;SDS011;27321;50.816;6.054;2023-03-14T00:43:23;4.20;;;1.20;;
41627;SDS011;27321;50.816;6.054;2023-03-14T00:46:24;1.55;;;0.57;;
41627;SDS011;27321;50.816;6.054;2023-03-14T00:49:25;2.17;;;0.82;;
41627;SDS011;27321;50.816;6.054;2023-03-14T00:52:27;4.72;;;0.93;;
41627;SDS011;27321;50.816;6.054;2023-03-14T00:55:27;4.33;;;0.97;;
41627;SDS011;27321;50.816;6.054;2023-03-14T00:58:28;6.50;;;1.10;;
41627;SDS011;27321;50.816;6.054;2023-03-14T01:01:30;1.65;;;0.80;;
41627;SDS011;27321;50.816;6.054;2023-03-14T01:04:31;3.05;;;0.80;;
41627;SDS011;27321;50.816;6.054;2023-03-14T01:07:32;1.25;;;0.52;;
41627;SDS011;27321;50.816;6.054;2023-03-14T01:10:34;2.35;;;0.90;;
41627;SDS011;27321;50.816;6.054;2023-03-14T01:13:39;2.07;;;0.67;;
41627;SDS011;27321;50.816;6.054;2023-03-14T01:16:40;0.68;;;0.52;;
41627;SDS011;27321;50.816;6.054;2023-03-14T01:19:41;4.88;;;0.68;;
41627;SDS011;27321;50.816;6.054;2023-03-14T01:22:43;2.03;;;0.50;;
41627;SDS011;27321;50.816;6.054;2023-03-14T01:25:44;2.38;;;0.70;;
41627;SDS011;27321;50.816;6.054;2023-03-14T01:28:45;3.85;;;0.82;;
41627;SDS011;27321;50.816;6.054;2023-03-14T01:31:48;3.20;;;0.70;;
41627;SDS011;27321;50.816;6.054;2023-03-14T01:34:49;1.85;;;0.73;;
41627;SDS011;27321;50.816;6.054;2023-03-14T01:37:50;3.10;;;0.70;;
41627;SDS011;27321;50.816;6.054;2023-03-14T01:40:55;2.03;;;0.83;;
41627;SDS011;27321;50.816;6.054;2023-03-14T01:46:58;4.57;;;0.90;;
41627;SDS011;27321;50.816;6.054;2023-03-14T01:50:01;2.83;;;0.95;;
41627;SDS011;27321;50.816;6.054;2023-03-14T01:53:08;3.07;;;0.70;;
41627;SDS011;27321;50.816;6.054;2023-03-14T01:56:10;2.63;;;0.75;;
41627;SDS011;27321;50.816;6.054;2023-03-14T01:59:15;3.50;;;0.77;;
41627;SDS011;27321;50.816;6.054;2023-03-14T02:02:16;4.50;;;1.10;;
41627;SDS011;27321;50.816;6.054;2023-03-14T02:05:19;6.38;;;0.93;;
41627;SDS011;27321;50.816;6.054;2023-03-14T02:08:34;5.23;;;0.90;;
41627;SDS011;27321;50.816;6.054;2023-03-14T02:11:40;3.90;;;0.90;;
41627;SDS011;27321;50.816;6.054;2023-03-14T02:14:49;3.97;;;1.00;;
41627;SDS011;27321;50.816;6.054;2023-03-14T02:17:58;2.87;;;0.87;;
41627;SDS011;27321;50.816;6.054;2023-03-14T02:21:23;6.57;;;1.35;;
41627;SDS011;27321;50.816;6.054;2023-03-14T02:28:44;3.77;;;1.20;;
41627;SDS011;27321;50.816;6.054;2023-03-14T02:31:45;5.53;;;1.10;;
41627;SDS011;27321;50.816;6.054;2023-03-14T02:34:47;4.68;;;1.40;;
41627;SDS011;27321;50.816;6.054;2023-03-14T02:37:55;5.33;;;1.73;;
41627;SDS011;27321;50.816;6.054;2023-03-14T02:41:18;4.93;;;1.43;;
41627;SDS011;27321;50.816;6.054;2023-03-14T02:44:27;6.87;;;1.60;;
41627;SDS011;27321;50.816;6.054;2023-03-14T02:47:30;4.97;;;1.37;;
41627;SDS011;27321;50.816;6.054;2023-03-14T02:50:32;6.90;;;1.50;;
41627;SDS011;27321;50.816;6.054;2023-03-14T02:53:35;6.37;;;1.53;;
41627;SDS011;27321;50.816;6.054;2023-03-14T02:56:42;7.27;;;1.20;;
41627;SDS011;27321;50.816;6.054;2023-03-14T02:59:46;3.90;;;1.00;;
41627;SDS011;27321;50.816;6.054;2023-03-14T03:02:51;3.30;;;1.20;;
41627;SDS011;27321;50.816;6.054;2023-03-14T03:05:52;7.27;;;1.27;;
41627;SDS011;27321;50.816;6.054;2023-03-14T03:08:55;3.07;;;0.90;;
41627;SDS011;27321;50.816;6.054;2023-03-14T03:11:56;2.42;;;0.82;;
41627;SDS011;27321;50.816;6.054;2023-03-14T03:15:00;3.53;;;1.00;;
41627;SDS011;27321;50.816;6.054;2023-03-14T03:18:01;3.83;;;0.90;;
41627;SDS011;27321;50.816;6.054;2023-03-14T03:21:03;2.92;;;0.80;;
41627;SDS011;27321;50.816;6.054;2023-03-14T03:24:05;2.67;;;0.70;;
41627;SDS011;27321;50.816;6.054;2023-03-14T03:27:08;1.13;;;0.50;;
41627;SDS011;27321;50.816;6.054;2023-03-14T03:30:09;2.45;;;0.90;;
41627;SDS011;27321;50.816;6.054;2023-03-14T03:33:11;1.33;;;0.50;;
41627;SDS011;27321;50.816;6.054;2023-03-14T03:36:20;2.93;;;0.70;;
41627;SDS011;27321;50.816;6.054;2023-03-14T03:39:23;2.00;;;0.37;;
41627;SDS011;27321;50.816;6.054;2023-03-14T03:42:25;1.52;;;0.52;;
41627;SDS011;27321;50.816;6.054;2023-03-14T03:45:27;1.47;;;0.50;;
41627;SDS011;27321;50.816;6.054;2023-03-14T03:48:30;2.40;;;0.60;;
41627;SDS011;27321;50.816;6.054;2023-03-14T03:51:32;1.42;;;0.35;;
41627;SDS011;27321;50.816;6.054;2023-03-14T03:54:33;1.13;;;0.40;;
41627;SDS011;27321;50.816;6.054;2023-03-14T03:57:34;1.38;;;0.52;;
41627;SDS011;27321;50.816;6.054;2023-03-14T04:00:35;0.80;;;0.45;;
41627;SDS011;27321;50.816;6.054;2023-03-14T04:03:37;0.93;;;0.35;;
41627;SDS011;27321;50.816;6.054;2023-03-14T04:06:41;0.33;;;0.30;;
41627;SDS011;27321;50.816;6.054;2023-03-14T04:09:42;1.27;;;0.20;;
41627;SDS011;27321;50.816;6.054;2023-03-14T04:12:54;2.50;;;0.23;;
41627;SDS011;27321;50.816;6.054;2023-03-14T04:15:58;2.07;;;0.17;;
41627;SDS011;27321;50.816;6.054;2023-03-14T04:19:02;1.20;;;0.10;;
41627;SDS011;27321;50.816;6.054;2023-03-14T04:22:05;0.93;;;0.20;;
41627;SDS011;27321;50.816;6.054;2023-03-14T04:25:11;0.23;;;0.10;;
41627;SDS011;27321;50.816;6.054;2023-03-14T04:28:17;0.30;;;0.20;;
41627;SDS011;27321;50.816;6.054;2023-03-14T04:31:20;1.17;;;0.20;;
41627;SDS011;27321;50.816;6.054;2023-03-14T04:34:23;0.87;;;0.23;;
41627;SDS011;27321;50.816;6.054;2023-03-14T04:37:27;1.00;;;0.00;;
41627;SDS011;27321;50.816;6.054;2023-03-14T04:40:28;0.13;;;0.10;;
41627;SDS011;27321;50.816;6.054;2023-03-14T04:43:35;0.10;;;0.07;;
41627;SDS011;27321;50.816;6.054;2023-03-14T04:46:41;0.50;;;0.10;;
41627;SDS011;27321;50.816;6.054;2023-03-14T04:49:42;0.30;;;0.15;;
41627;SDS011;27321;50.816;6.054;2023-03-14T04:52:46;0.00;;;0.00;;
41627;SDS011;27321;50.816;6.054;2023-03-14T04:55:51;0.13;;;0.10;;
41627;SDS011;27321;50.816;6.054;2023-03-14T04:58:57;0.37;;;0.10;;
41627;SDS011;27321;50.816;6.054;2023-03-14T05:01:58;0.40;;;0.07;;
41627;SDS011;27321;50.816;6.054;2023-03-14T05:05:28;1.60;;;0.10;;
41627;SDS011;27321;50.816;6.054;2023-03-14T05:08:41;0.60;;;0.00;;
41627;SDS011;27321;50.816;6.054;2023-03-14T05:12:01;0.10;;;0.10;;
41627;SDS011;27321;50.816;6.054;2023-03-14T05:15:21;0.30;;;0.00;;
41627;SDS011;27321;50.816;6.054;2023-03-14T05:18:52;0.97;;;0.00;;
41627;SDS011;27321;50.816;6.054;2023-03-14T05:22:19;0.10;;;0.00;;
41627;SDS011;27321;50.816;6.054;2023-03-14T05:25:52;0.50;;;0.10;;
41627;SDS011;27321;50.816;6.054;2023-03-14T05:29:07;3.30;;;0.10;;
41627;SDS011;27321;50.816;6.054;2023-03-14T05:32:32;0.40;;;0.10;;
41627;SDS011;27321;50.816;6.054;2023-03-14T05:35:53;0.13;;;0.00;;
41627;SDS011;27321;50.816;6.054;2023-03-14T05:39:10;0.03;;;0.03;;
41627;SDS011;27321;50.816;6.054;2023-03-14T05:42:41;0.43;;;0.07;;
41627;SDS011;27321;50.816;6.054;2023-03-14T05:46:17;0.10;;;0.00;;
41627;SDS011;27321;50.816;6.054;2023-03-14T05:49:47;1.53;;;0.10;;
41627;SDS011;27321;50.816;6.054;2023-03-14T05:53:02;0.20;;;0.10;;
41627;SDS011;27321;50.816;6.054;2023-03-14T05:56:18;0.00;;;0.00;;
41627;SDS011;27321;50.816;6.054;2023-03-14T05:59:32;0.00;;;0.00;;
41627;SDS011;27321;50.816;6.054;2023-03-14T06:02:39;0.10;;;0.00;;
41627;SDS011;27321;50.816;6.054;2023-03-14T06:05:51;1.73;;;0.10;;
41627;SDS011;27321;50.816;6.054;2023-03-14T06:08:54;0.00;;;0.00;;
41627;SDS011;27321;50.816;6.054;2023-03-14T06:11:55;0.00;;;0.00;;
41627;SDS011;27321;50.816;6.054;2023-03-14T06:14:56;0.10;;;0.10;;
41627;SDS011;27321;50.816;6.054;2023-03-14T06:17:57;0.28;;;0.08;;
41627;SDS011;27321;50.816;6.054;2023-03-14T06:21:00;0.63;;;0.20;;
41627;SDS011;27321;50.816;6.054;2023-03-14T06:24:01;0.57;;;0.40;;
41627;SDS011;27321;50.816;6.054;2023-03-14T06:27:04;0.10;;;0.10;;
41627;SDS011;27321;50.816;6.054;2023-03-14T06:30:06;0.25;;;0.20;;
41627;SDS011;27321;50.816;6.054;2023-03-14T06:33:08;0.10;;;0.10;;
41627;SDS011;27321;50.816;6.054;2023-03-14T06:36:10;0.20;;;0.20;;
41627;SDS011;27321;50.816;6.054;2023-03-14T06:39:14;0.30;;;0.10;;
41627;SDS011;27321;50.816;6.054;2023-03-14T06:42:19;0.10;;;0.10;;
41627;SDS011;27321;50.816;6.054;2023-03-14T06:45:20;0.30;;;0.20;;
41627;SDS011;27321;50.816;6.054;2023-03-14T06:48:22;2.10;;;0.10;;
41627;SDS011;27321;50.816;6.054;2023-03-14T06:51:26;0.20;;;0.20;;
41627;SDS011;27321;50.816;6.054;2023-03-14T06:54:28;0.20;;;0.20;;
41627;SDS011;27321;50.816;6.054;2023-03-14T06:57:29;0.20;;;0.08;;
41627;SDS011;27321;50.816;6.054;2023-03-14T07:00:30;0.20;;;0.20;;
41627;SDS011;27321;50.816;6.054;2023-03-14T07:03:31;1.23;;;0.20;;
41627;SDS011;27321;50.816;6.054;2023-03-14T07:06:33;0.10;;;0.10;;
41627;SDS011;27321;50.816;6.054;2023-03-14T07:09:34;0.10;;;0.10;;
41627;SDS011;27321;50.816;6.054;2023-03-14T07:12:36;0.10;;;0.10;;
41627;SDS011;27321;50.816;6.054;2023-03-14T07:15:37;0.15;;;0.15;;
41627;SDS011;27321;50.816;6.054;2023-03-14T07:18:42;0.40;;;0.20;;
41627;SDS011;27321;50.816;6.054;2023-03-14T07:21:44;0.10;;;0.10;;
41627;SDS011;27321;50.816;6.054;2023-03-14T07:24:47;0.20;;;0.20;;
41627;SDS011;27321;50.816;6.054;2023-03-14T07:27:48;1.30;;;0.10;;
41627;SDS011;27321;50.816;6.054;2023-03-14T07:30:50;0.43;;;0.10;;
41627;SDS011;27321;50.816;6.054;2023-03-14T07:33:56;0.63;;;0.13;;
41627;SDS011;27321;50.816;6.054;2023-03-14T07:37:02;0.40;;;0.27;;
41627;SDS011;27321;50.816;6.054;2023-03-14T07:40:06;0.37;;;0.10;;
41627;SDS011;27321;50.816;6.054;2023-03-14T07:43:09;0.40;;;0.20;;
41627;SDS011;27321;50.816;6.054;2023-03-14T07:46:15;0.70;;;0.20;;
41627;SDS011;27321;50.816;6.054;2023-03-14T07:49:17;0.97;;;0.33;;
41627;SDS011;27321;50.816;6.054;2023-03-14T07:52:18;0.60;;;0.40;;
41627;SDS011;27321;50.816;6.054;2023-03-14T07:55:19;0.43;;;0.20;;
41627;SDS011;27321;50.816;6.054;2023-03-14T07:58:21;0.30;;;0.30;;
41627;SDS011;27321;50.816;6.054;2023-03-14T08:01:22;0.70;;;0.25;;
41627;SDS011;27321;50.816;6.054;2023-03-14T08:04:23;0.25;;;0.22;;
41627;SDS011;27321;50.816;6.054;2023-03-14T08:07:24;0.68;;;0.30;;
41627;SDS011;27321;50.816;6.054;2023-03-14T08:10:25;0.43;;;0.22;;
41627;SDS011;27321;50.816;6.054;2023-03-14T08:13:28;0.43;;;0.13;;
41627;SDS011;27321;50.816;6.054;2023-03-14T08:16:29;0.40;;;0.40;;
41627;SDS011;27321;50.816;6.054;2023-03-14T08:19:30;0.40;;;0.40;;
41627;SDS011;27321;50.816;6.054;2023-03-14T08:22:31;1.88;;;0.40;;
41627;SDS011;27321;50.816;6.054;2023-03-14T08:25:32;2.13;;;0.47;;
41627;SDS011;27321;50.816;6.054;2023-03-14T08:28:33;0.40;;;0.30;;
41627;SDS011;27321;50.816;6.054;2023-03-14T08:31:34;0.63;;;0.45;;
41627;SDS011;27321;50.816;6.054;2023-03-14T08:34:35;0.38;;;0.20;;
41627;SDS011;27321;50.816;6.054;2023-03-14T08:37:37;0.32;;;0.30;;
41627;SDS011;27321;50.816;6.054;2023-03-14T08:40:38;0.82;;;0.32;;
41627;SDS011;27321;50.816;6.054;2023-03-14T08:43:39;0.43;;;0.30;;
41627;SDS011;27321;50.816;6.054;2023-03-14T08:46:40;0.20;;;0.20;;
41627;SDS011;27321;50.816;6.054;2023-03-14T08:49:41;1.73;;;0.40;;
41627;SDS011;27321;50.816;6.054;2023-03-14T08:52:42;0.40;;;0.40;;
41627;SDS011;27321;50.816;6.054;2023-03-14T08:55:43;0.37;;;0.37;;
41627;SDS011;27321;50.816;6.054;2023-03-14T08:58:44;0.30;;;0.30;;
41627;SDS011;27321;50.816;6.054;2023-03-14T09:01:46;0.15;;;0.10;;
41627;SDS011;27321;50.816;6.054;2023-03-14T09:04:47;0.20;;;0.20;;
41627;SDS011;27321;50.816;6.054;2023-03-14T09:07:48;0.50;;;0.20;;
41627;SDS011;27321;50.816;6.054;2023-03-14T09:10:49;0.60;;;0.20;;
41627;SDS011;27321;50.816;6.054;2023-03-14T09:13:50;0.80;;;0.27;;
41627;SDS011;27321;50.816;6.054;2023-03-14T09:16:51;0.40;;;0.10;;
41627;SDS011;27321;50.816;6.054;2023-03-14T09:19:52;1.27;;;0.10;;
41627;SDS011;27321;50.816;6.054;2023-03-14T09:22:53;1.00;;;0.30;;
41627;SDS011;27321;50.816;6.054;2023-03-14T09:25:55;0.30;;;0.30;;
41627;SDS011;27321;50.816;6.054;2023-03-14T09:28:57;1.07;;;0.60;;
41627;SDS011;27321;50.816;6.054;2023-03-14T09:31:58;0.63;;;0.63;;
41627;SDS011;27321;50.816;6.054;2023-03-14T09:34:59;0.50;;;0.50;;
41627;SDS011;27321;50.816;6.054;2023-03-14T09:38:00;1.10;;;0.50;;
41627;SDS011;27321;50.816;6.054;2023-03-14T09:41:02;1.95;;;0.77;;
41627;SDS011;27321;50.816;6.054;2023-03-14T09:47:17;1.63;;;0.70;;
41627;SDS011;27321;50.816;6.054;2023-03-14T09:50:20;3.90;;;1.20;;
41627;SDS011;27321;50.816;6.054;2023-03-14T09:53:26;2.42;;;1.42;;
41627;SDS011;27321;50.816;6.054;2023-03-14T09:56:38;3.60;;;1.40;;
41627;SDS011;27321;50.816;6.054;2023-03-14T09:59:39;3.40;;;1.20;;
41627;SDS011;27321;50.816;6.054;2023-03-14T10:03:21;1.40;;;1.30;;
41627;SDS011;27321;50.816;6.054;2023-03-14T10:06:13;4.37;;;1.43;;
41627;SDS011;27321;50.816;6.054;2023-03-14T10:09:19;4.93;;;1.20;;
41627;SDS011;27321;50.816;6.054;2023-03-14T10:12:32;2.57;;;1.27;;
41627;SDS011;27321;50.816;6.054;2023-03-14T10:15:35;2.23;;;1.03;;
41627;SDS011;27321;50.816;6.054;2023-03-14T10:18:38;2.03;;;1.10;;
41627;SDS011;27321;50.816;6.054;2023-03-14T10:21:50;2.13;;;0.93;;
41627;SDS011;27321;50.816;6.054;2023-03-14T10:24:55;2.20;;;1.30;;
41627;SDS011;27321;50.816;6.054;2023-03-14T10:28:02;2.10;;;1.33;;
41627;SDS011;27321;50.816;6.054;2023-03-14T10:31:04;3.00;;;1.50;;
41627;SDS011;27321;50.816;6.054;2023-03-14T10:34:09;1.55;;;1.45;;
41627;SDS011;27321;50.816;6.054;2023-03-14T10:37:24;1.43;;;1.27;;
41627;SDS011;27321;50.816;6.054;2023-03-14T10:40:31;2.10;;;1.13;;
41627;SDS011;27321;50.816;6.054;2023-03-14T10:43:36;1.13;;;0.80;;
41627;SDS011;27321;50.816;6.054;2023-03-14T10:46:39;3.13;;;0.83;;
41627;SDS011;27321;50.816;6.054;2023-03-14T10:50:33;0.70;;;0.70;;
41627;SDS011;27321;50.816;6.054;2023-03-14T10:56:59;0.37;;;0.10;;
41627;SDS011;27321;50.816;6.054;2023-03-14T11:00:01;2.03;;;0.40;;
41627;SDS011;27321;50.816;6.054;2023-03-14T11:03:09;1.20;;;0.43;;
41627;SDS011;27321;50.816;6.054;2023-03-14T11:06:21;1.33;;;0.50;;
41627;SDS011;27321;50.816;6.054;2023-03-14T11:16:44;2.60;;;0.90;;
41627;SDS011;27321;50.816;6.054;2023-03-14T11:27:00;0.93;;;0.50;;
41627;SDS011;27321;50.816;6.054;2023-03-14T11:30:23;3.10;;;0.83;;
41627;SDS011;27321;50.816;6.054;2023-03-14T11:33:46;0.52;;;0.40;;
41627;SDS011;27321;50.816;6.054;2023-03-14T11:37:06;0.53;;;0.40;;
41627;SDS011;27321;50.816;6.054;2023-03-14T11:40:23;0.70;;;0.50;;
41627;SDS011;27321;50.816;6.054;2023-03-14T11:43:32;0.80;;;0.40;;
41627;SDS011;27321;50.816;6.054;2023-03-14T11:46:43;1.80;;;0.40;;
41627;SDS011;27321;50.816;6.054;2023-03-14T11:50:03;1.75;;;0.70;;
41627;SDS011;27321;50.816;6.054;2023-03-14T11:53:21;0.50;;;0.50;;
41627;SDS011;27321;50.816;6.054;2023-03-14T11:57:18;0.80;;;0.30;;
41627;SDS011;27321;50.816;6.054;2023-03-14T12:03:31;3.43;;;0.50;;
41627;SDS011;27321;50.816;6.054;2023-03-14T12:06:44;1.50;;;0.40;;
41627;SDS011;27321;50.816;6.054;2023-03-14T12:09:49;1.13;;;0.30;;
41627;SDS011;27321;50.816;6.054;2023-03-14T12:12:52;0.30;;;0.30;;
41627;SDS011;27321;50.816;6.054;2023-03-14T12:15:54;0.60;;;0.40;;
41627;SDS011;27321;50.816;6.054;2023-03-14T12:22:44;0.50;;;0.50;;
41627;SDS011;27321;50.816;6.054;2023-03-14T12:26:16;1.60;;;0.60;;
41627;SDS011;27321;50.816;6.054;2023-03-14T12:29:20;0.60;;;0.60;;
41627;SDS011;27321;50.816;6.054;2023-03-14T12:32:24;0.77;;;0.73;;
41627;SDS011;27321;50.816;6.054;2023-03-14T12:38:46;2.80;;;0.60;;
41627;SDS011;27321;50.816;6.054;2023-03-14T12:45:34;1.00;;;0.80;;
41627;SDS011;27321;50.816;6.054;2023-03-14T12:48:37;3.33;;;0.80;;
41627;SDS011;27321;50.816;6.054;2023-03-14T12:51:40;3.53;;;1.03;;
41627;SDS011;27321;50.816;6.054;2023-03-14T12:58:14;2.20;;;0.80;;
41627;SDS011;27321;50.816;6.054;2023-03-14T13:01:24;1.87;;;0.87;;
41627;SDS011;27321;50.816;6.054;2023-03-14T13:04:32;3.83;;;1.00;;
41627;SDS011;27321;50.816;6.054;2023-03-14T13:11:09;5.17;;;0.90;;
41627;SDS011;27321;50.816;6.054;2023-03-14T13:14:19;2.73;;;0.77;;
41627;SDS011;27321;50.816;6.054;2023-03-14T13:17:30;3.08;;;0.80;;
41627;SDS011;27321;50.816;6.054;2023-03-14T13:20:34;4.47;;;0.70;;
41627;SDS011;27321;50.816;6.054;2023-03-14T13:23:39;2.40;;;0.57;;
41627;SDS011;27321;50.816;6.054;2023-03-14T13:26:41;3.10;;;0.50;;
41627;SDS011;27321;50.816;6.054;2023-03-14T13:29:43;1.50;;;0.43;;
41627;SDS011;27321;50.816;6.054;2023-03-14T13:32:45;1.92;;;0.60;;
41627;SDS011;27321;50.816;6.054;2023-03-14T13:35:53;3.33;;;0.70;;
41627;SDS011;27321;50.816;6.054;2023-03-14T13:39:00;1.15;;;0.82;;
41627;SDS011;27321;50.816;6.054;2023-03-14T13:42:10;5.87;;;1.00;;
41627;SDS011;27321;50.816;6.054;2023-03-14T13:45:15;7.53;;;1.77;;
41627;SDS011;27321;50.816;6.054;2023-03-14T13:48:16;8.50;;;1.88;;
41627;SDS011;27321;50.816;6.054;2023-03-14T13:51:19;6.67;;;1.57;;
41627;SDS011;27321;50.816;6.054;2023-03-14T13:54:22;6.00;;;1.43;;
41627;SDS011;27321;50.816;6.054;2023-03-14T13:57:26;4.83;;;1.30;;
41627;SDS011;27321;50.816;6.054;2023-03-14T14:00:27;5.00;;;1.38;;
41627;SDS011;27321;50.816;6.054;2023-03-14T14:03:30;11.43;;;2.30;;
41627;SDS011;27321;50.816;6.054;2023-03-14T14:06:37;8.17;;;1.93;;
41627;SDS011;27321;50.816;6.054;2023-03-14T14:09:46;4.60;;;1.20;;
41627;SDS011;27321;50.816;6.054;2023-03-14T14:12:52;6.17;;;1.53;;
41627;SDS011;27321;50.816;6.054;2023-03-14T14:16:03;6.67;;;1.70;;
41627;SDS011;27321;50.816;6.054;2023-03-14T14:19:05;7.25;;;1.40;;
41627;SDS011;27321;50.816;6.054;2023-03-14T14:22:07;5.57;;;1.38;;
41627;SDS011;27321;50.816;6.054;2023-03-14T14:25:14;8.00;;;1.83;;
41627;SDS011;27321;50.816;6.054;2023-03-14T14:31:27;5.20;;;1.60;;
41627;SDS011;27321;50.816;6.054;2023-03-14T14:34:28;7.67;;;1.87;;
41627;SDS011;27321;50.816;6.054;2023-03-14T14:37:51;9.07;;;3.00;;
41627;SDS011;27321;50.816;6.054;2023-03-14T14:40:53;5.47;;;1.92;;
41627;SDS011;27321;50.816;6.054;2023-03-14T14:44:00;7.67;;;1.93;;
41627;SDS011;27321;50.816;6.054;2023-03-14T14:47:11;5.30;;;1.70;;
41627;SDS011;27321;50.816;6.054;2023-03-14T14:50:30;5.40;;;1.47;;
41627;SDS011;27321;50.816;6.054;2023-03-14T14:53:37;5.80;;;1.30;;
41627;SDS011;27321;50.816;6.054;2023-03-14T14:56:47;8.60;;;1.40;;
41627;SDS011;27321;50.816;6.054;2023-03-14T14:59:54;6.23;;;1.47;;
41627;SDS011;27321;50.816;6.054;2023-03-14T15:03:00;3.90;;;1.33;;
41627;SDS011;27321;50.816;6.054;2023-03-14T15:06:02;6.20;;;1.50;;
41627;SDS011;27321;50.816;6.054;2023-03-14T15:09:04;8.07;;;1.47;;
41627;SDS011;27321;50.816;6.054;2023-03-14T15:12:05;6.53;;;1.60;;
41627;SDS011;27321;50.816;6.054;2023-03-14T15:15:07;7.97;;;1.83;;
41627;SDS011;27321;50.816;6.054;2023-03-14T15:18:14;8.83;;;2.10;;
41627;SDS011;27321;50.816;6.054;2023-03-14T15:21:18;5.70;;;1.47;;
41627;SDS011;27321;50.816;6.054;2023-03-14T15:24:19;6.50;;;1.52;;
41627;SDS011;27321;50.816;6.054;2023-03-14T15:27:21;7.27;;;1.77;;
41627;SDS011;27321;50.816;6.054;2023-03-14T15:30:23;7.47;;;1.65;;
41627;SDS011;27321;50.816;6.054;2023-03-14T15:33:25;3.13;;;1.33;;
41627;SDS011;27321;50.816;6.054;2023-03-14T15:36:28;3.67;;;1.17;;
41627;SDS011;27321;50.816;6.054;2023-03-14T15:39:33;5.47;;;1.80;;
41627;SDS011;27321;50.816;6.054;2023-03-14T15:42:35;3.93;;;1.30;;
41627;SDS011;27321;50.816;6.054;2023-03-14T15:45:36;7.10;;;1.60;;
41627;SDS011;27321;50.816;6.054;2023-03-14T15:48:37;5.15;;;1.85;;
41627;SDS011;27321;50.816;6.054;2023-03-14T15:51:38;4.65;;;2.15;;
41627;SDS011;27321;50.816;6.054;2023-03-14T15:54:39;8.68;;;2.33;;
41627;SDS011;27321;50.816;6.054;2023-03-14T15:57:42;6.43;;;2.37;;
41627;SDS011;27321;50.816;6.054;2023-03-14T16:00:44;6.00;;;2.30;;
41627;SDS011;27321;50.816;6.054;2023-03-14T16:03:45;7.43;;;2.17;;
41627;SDS011;27321;50.816;6.054;2023-03-14T16:06:48;7.47;;;2.03;;
41627;SDS011;27321;50.816;6.054;2023-03-14T16:09:49;5.57;;;2.43;;
41627;SDS011;27321;50.816;6.054;2023-03-14T16:12:50;7.72;;;1.88;;
41627;SDS011;27321;50.816;6.054;2023-03-14T16:15:58;6.77;;;1.93;;
41627;SDS011;27321;50.816;6.054;2023-03-14T16:19:02;5.37;;;2.07;;
41627;SDS011;27321;50.816;6.054;2023-03-14T16:22:05;5.57;;;2.30;;
41627;SDS011;27321;50.816;6.054;2023-03-14T16:25:07;8.10;;;2.55;;
41627;SDS011;27321;50.816;6.054;2023-03-14T16:31:11;7.97;;;2.10;;
41627;SDS011;27321;50.816;6.054;2023-03-14T16:34:17;5.33;;;2.10;;
41627;SDS011;27321;50.816;6.054;2023-03-14T16:37:18;7.53;;;2.25;;
41627;SDS011;27321;50.816;6.054;2023-03-14T16:40:21;7.73;;;2.30;;
41627;SDS011;27321;50.816;6.054;2023-03-14T16:43:23;7.50;;;2.30;;
41627;SDS011;27321;50.816;6.054;2023-03-14T16:46:24;7.78;;;0.90;;
41627;SDS011;27321;50.816;6.054;2023-03-14T16:49:27;1.80;;;0.70;;
41627;SDS011;27321;50.816;6.054;2023-03-14T16:52:29;2.70;;;0.87;;
41627;SDS011;27321;50.816;6.054;2023-03-14T16:55:31;3.53;;;0.80;;
41627;SDS011;27321;50.816;6.054;2023-03-14T16:58:33;2.10;;;0.73;;
41627;SDS011;27321;50.816;6.054;2023-03-14T17:01:34;4.47;;;0.80;;
41627;SDS011;27321;50.816;6.054;2023-03-14T17:04:39;2.03;;;0.63;;
41627;SDS011;27321;50.816;6.054;2023-03-14T17:07:44;2.63;;;0.83;;
41627;SDS011;27321;50.816;6.054;2023-03-14T17:10:45;5.73;;;1.13;;
41627;SDS011;27321;50.816;6.054;2023-03-14T17:13:47;1.87;;;0.67;;
41627;SDS011;27321;50.816;6.054;2023-03-14T17:16:49;1.83;;;0.93;;
41627;SDS011;27321;50.816;6.054;2023-03-14T17:19:50;3.40;;;1.03;;
41627;SDS011;27321;50.816;6.054;2023-03-14T17:22:51;1.58;;;0.95;;
41627;SDS011;27321;50.816;6.054;2023-03-14T17:25:52;1.90;;;0.90;;
41627;SDS011;27321;50.816;6.054;2023-03-14T17:28:53;3.00;;;0.90;;
41627;SDS011;27321;50.816;6.054;2023-03-14T17:31:58;3.72;;;0.93;;
41627;SDS011;27321;50.816;6.054;2023-03-14T17:34:59;2.03;;;1.07;;
41627;SDS011;27321;50.816;6.054;2023-03-14T17:38:00;4.47;;;1.13;;
41627;SDS011;27321;50.816;6.054;2023-03-14T17:41:05;2.55;;;0.90;;
41627;SDS011;27321;50.816;6.054;2023-03-14T17:44:11;3.30;;;1.00;;
41627;SDS011;27321;50.816;6.054;2023-03-14T17:47:12;3.47;;;1.10;;
41627;SDS011;27321;50.816;6.054;2023-03-14T17:50:13;3.87;;;1.20;;
41627;SDS011;27321;50.816;6.054;2023-03-14T17:53:14;5.32;;;1.25;;
41627;SDS011;27321;50.816;6.054;2023-03-14T17:56:16;4.82;;;1.27;;
41627;SDS011;27321;50.816;6.054;2023-03-14T17:59:17;3.10;;;1.40;;
41627;SDS011;27321;50.816;6.054;2023-03-14T18:02:22;6.30;;;1.40;;
41627;SDS011;27321;50.816;6.054;2023-03-14T18:05:25;2.70;;;1.30;;
41627;SDS011;27321;50.816;6.054;2023-03-14T18:08:26;4.18;;;1.65;;
41627;SDS011;27321;50.816;6.054;2023-03-14T18:11:27;4.27;;;1.67;;
41627;SDS011;27321;50.816;6.054;2023-03-14T18:14:28;3.17;;;1.37;;
41627;SDS011;27321;50.816;6.054;2023-03-14T18:17:32;6.07;;;1.90;;
41627;SDS011;27321;50.816;6.054;2023-03-14T18:20:33;1.80;;;1.00;;
41627;SDS011;27321;50.816;6.054;2023-03-14T18:23:34;6.47;;;2.20;;
41627;SDS011;27321;50.816;6.054;2023-03-14T18:26:36;4.32;;;1.90;;
41627;SDS011;27321;50.816;6.054;2023-03-14T18:29:37;5.28;;;1.67;;
41627;SDS011;27321;50.816;6.054;2023-03-14T18:32:38;6.55;;;1.92;;
41627;SDS011;27321;50.816;6.054;2023-03-14T18:35:39;6.38;;;1.70;;
41627;SDS011;27321;50.816;6.054;2023-03-14T18:38:41;3.80;;;1.80;;
41627;SDS011;27321;50.816;6.054;2023-03-14T18:41:42;7.07;;;2.17;;
41627;SDS011;27321;50.816;6.054;2023-03-14T18:44:43;8.53;;;1.87;;
41627;SDS011;27321;50.816;6.054;2023-03-14T18:47:44;5.97;;;2.00;;
41627;SDS011;27321;50.816;6.054;2023-03-14T18:50:45;7.67;;;2.07;;
41627;SDS011;27321;50.816;6.054;2023-03-14T18:53:46;2.63;;;1.30;;
41627;SDS011;27321;50.816;6.054;2023-03-14T18:56:47;2.93;;;1.40;;
41627;SDS011;27321;50.816;6.054;2023-03-14T18:59:48;4.53;;;1.37;;
41627;SDS011;27321;50.816;6.054;2023-03-14T19:02:49;4.93;;;1.88;;
41627;SDS011;27321;50.816;6.054;2023-03-14T19:05:52;5.50;;;1.37;;
41627;SDS011;27321;50.816;6.054;2023-03-14T19:08:54;4.10;;;1.70;;
41627;SDS011;27321;50.816;6.054;2023-03-14T19:11:55;2.47;;;1.30;;
41627;SDS011;27321;50.816;6.054;2023-03-14T19:14:56;8.67;;;2.43;;
41627;SDS011;27321;50.816;6.054;2023-03-14T19:17:57;6.63;;;2.20;;
41627;SDS011;27321;50.816;6.054;2023-03-14T19:20:59;10.00;;;2.33;;
41627;SDS011;27321;50.816;6.054;2023-03-14T19:24:03;6.53;;;1.70;;
41627;SDS011;27321;50.816;6.054;2023-03-14T19:27:06;8.43;;;2.10;;
41627;SDS011;27321;50.816;6.054;2023-03-14T19:30:10;8.07;;;1.70;;